createdAt,value
2019-01-21T04:00:58.863Z,-6.99
2019-01-21T04:02:59.069Z,-7.00
2019-01-21T04:03:59.234Z,-6.97
2019-01-21T04:04:59.334Z,-6.92
2019-01-21T04:05:59.479Z,-7.00
2019-01-21T04:06:59.671Z,-6.99
2019-01-21T04:07:59.829Z,-6.94
2019-01-21T04:09:00.008Z,-7.03
2019-01-21T04:10:00.502Z,-7.08
2019-01-21T04:11:00.289Z,-6.99
2019-01-21T04:12:00.460Z,-7.05
2019-01-21T04:13:00.564Z,-6.94
2019-01-21T04:14:00.739Z,-7.07
2019-01-21T04:15:00.854Z,-6.97
2019-01-21T04:16:01.070Z,-7.15
2019-01-21T04:17:01.200Z,-7.03
2019-01-21T04:18:01.291Z,-7.07
2019-01-21T04:19:01.514Z,-7.17
2019-01-21T04:20:01.653Z,-7.22
2019-01-21T04:21:01.815Z,-7.15
2019-01-21T04:22:01.953Z,-7.18
2019-01-21T04:23:02.084Z,-7.17
2019-01-21T04:24:02.213Z,-7.18
2019-01-21T04:25:02.355Z,-7.14
2019-01-21T04:26:02.516Z,-7.11
2019-01-21T04:27:02.701Z,-7.13
2019-01-21T04:28:02.878Z,-7.00
2019-01-21T04:29:03.035Z,-7.04
2019-01-21T04:30:03.122Z,-7.00
2019-01-21T04:31:03.305Z,-6.97
2019-01-21T04:32:03.475Z,-7.03
2019-01-21T04:33:03.624Z,-6.87
2019-01-21T04:34:03.747Z,-6.89
2019-01-21T04:35:03.897Z,-6.92
2019-01-21T04:36:04.099Z,-6.90
2019-01-21T04:37:04.328Z,-6.79
2019-01-21T04:38:04.411Z,-6.90
2019-01-21T04:39:04.567Z,-6.78
2019-01-21T04:40:04.711Z,-6.79
2019-01-21T04:41:04.866Z,-6.76
2019-01-21T04:42:05.003Z,-6.81
2019-01-21T04:43:05.097Z,-6.78
2019-01-21T04:44:05.283Z,-6.83
2019-01-21T04:45:05.407Z,-6.81
2019-01-21T04:46:05.607Z,-6.76
2019-01-21T04:47:05.707Z,-6.74
2019-01-21T04:48:05.899Z,-6.74
2019-01-21T04:49:06.101Z,-6.79
2019-01-21T04:50:06.199Z,-6.68
2019-01-21T04:51:06.333Z,-6.68
2019-01-21T04:52:06.534Z,-6.69
2019-01-21T04:53:06.668Z,-6.60
2019-01-21T04:54:06.882Z,-6.52
2019-01-21T04:55:06.976Z,-6.54
2019-01-21T04:56:07.116Z,-6.46
2019-01-21T04:57:07.264Z,-6.38
2019-01-21T04:58:07.402Z,-6.38
2019-01-21T04:59:07.632Z,-6.34
2019-01-21T05:00:08.782Z,-6.29
2019-01-21T05:01:08.003Z,-6.23
2019-01-21T05:02:08.147Z,-6.13
2019-01-21T05:03:08.334Z,-6.23
2019-01-21T05:04:08.449Z,-6.24
2019-01-21T05:05:08.615Z,-6.28
2019-01-21T05:06:08.767Z,-6.23
2019-01-21T05:07:08.877Z,-6.14
2019-01-21T05:08:09.112Z,-6.24
2019-01-21T05:09:09.253Z,-6.03
2019-01-21T05:10:09.417Z,-6.15
2019-01-21T05:11:09.550Z,-6.02
2019-01-21T05:12:09.680Z,-6.08
2019-01-21T05:13:09.918Z,-6.14
2019-01-21T05:14:10.008Z,-6.14
2019-01-21T05:15:10.152Z,-6.03
2019-01-21T05:16:10.296Z,-6.03
2019-01-21T05:17:10.510Z,-6.07
2019-01-21T05:18:10.659Z,-6.07
2019-01-21T05:19:10.801Z,-6.11
2019-01-21T05:20:10.949Z,-6.07
2019-01-21T05:21:11.053Z,-6.10
2019-01-21T05:22:11.233Z,-6.07
2019-01-21T05:23:11.384Z,-6.05
2019-01-21T05:24:11.499Z,-6.05
2019-01-21T05:25:11.659Z,-6.03
2019-01-21T05:26:11.904Z,-6.11
2019-01-21T05:27:12.061Z,-6.10
2019-01-21T05:28:12.232Z,-6.02
2019-01-21T05:29:12.347Z,-6.00
2019-01-21T05:30:12.539Z,-6.05
2019-01-21T05:31:12.713Z,-6.10
2019-01-21T05:32:12.840Z,-6.08
2019-01-21T05:33:12.991Z,-5.93
2019-01-21T05:34:13.169Z,-5.97
2019-01-21T05:35:13.319Z,-5.97
2019-01-21T05:36:13.439Z,-5.86
2019-01-21T05:37:13.616Z,-5.84
2019-01-21T05:38:13.802Z,-5.75
2019-01-21T05:39:13.993Z,-5.75
2019-01-21T05:40:14.046Z,-5.75
2019-01-21T05:41:14.217Z,-5.81
2019-01-21T05:42:14.350Z,-5.74
2019-01-21T05:43:14.538Z,-5.81
2019-01-21T05:44:14.747Z,-5.75
2019-01-21T05:45:14.825Z,-5.67
2019-01-21T05:46:15.070Z,-5.79
2019-01-21T05:47:15.226Z,-5.75
2019-01-21T05:48:15.247Z,-5.56
2019-01-21T05:49:15.467Z,-5.57
2019-01-21T05:50:15.555Z,-5.51
2019-01-21T05:51:15.858Z,-5.53
2019-01-21T05:52:16.001Z,-5.53
2019-01-21T05:53:16.080Z,-5.49
2019-01-21T05:54:16.325Z,-5.39
2019-01-21T05:55:19.165Z,-5.38
2019-01-21T05:56:16.551Z,-5.42
2019-01-21T05:57:16.894Z,-5.35
2019-01-21T05:58:16.847Z,-5.35
2019-01-21T05:59:16.991Z,-5.36
2019-01-21T06:00:17.396Z,-5.29
2019-01-21T06:01:17.347Z,-5.38
2019-01-21T06:02:17.488Z,-5.28
2019-01-21T06:03:17.718Z,-5.33
2019-01-21T06:04:19.191Z,-5.24
2019-01-21T06:05:18.069Z,-5.25
2019-01-21T06:06:18.312Z,-5.21
2019-01-21T06:07:18.359Z,-5.22
2019-01-21T06:08:18.438Z,-5.17
2019-01-21T06:09:18.652Z,-5.13
2019-01-21T06:10:18.864Z,-5.18
2019-01-21T06:11:18.929Z,-5.05
2019-01-21T06:12:19.186Z,-4.98
2019-01-21T06:13:19.287Z,-4.95
2019-01-21T06:14:19.401Z,-5.03
2019-01-21T06:15:19.627Z,-4.87
2019-01-21T06:16:19.708Z,-4.89
2019-01-21T06:17:19.851Z,-4.92
2019-01-21T06:18:20.030Z,-4.85
2019-01-21T06:19:20.288Z,-4.85
2019-01-21T06:20:20.425Z,-4.82
2019-01-21T06:21:20.535Z,-4.81
2019-01-21T06:22:20.647Z,-4.82
2019-01-21T06:23:20.789Z,-4.79
2019-01-21T06:24:21.008Z,-4.91
2019-01-21T06:25:21.085Z,-4.78
2019-01-21T06:26:21.232Z,-4.79
2019-01-21T06:27:21.455Z,-4.79
2019-01-21T06:28:21.565Z,-4.70
2019-01-21T06:29:21.752Z,-4.70
2019-01-21T06:30:21.898Z,-4.78
2019-01-21T06:31:22.144Z,-4.69
2019-01-21T06:32:22.189Z,-4.73
2019-01-21T06:33:22.394Z,-4.75
2019-01-21T06:34:22.567Z,-4.71
2019-01-21T06:35:22.670Z,-4.69
2019-01-21T06:36:22.797Z,-4.71
2019-01-21T06:37:23.030Z,-4.67
2019-01-21T06:38:23.211Z,-4.67
2019-01-21T06:39:23.338Z,-4.69
2019-01-21T06:40:23.487Z,-4.67
2019-01-21T06:41:23.684Z,-4.66
2019-01-21T06:42:23.742Z,-4.69
2019-01-21T06:43:23.888Z,-4.69
2019-01-21T06:44:24.020Z,-4.75
2019-01-21T06:45:24.181Z,-4.64
2019-01-21T06:46:24.377Z,-4.71
2019-01-21T06:47:24.569Z,-4.73
2019-01-21T06:48:24.775Z,-4.71
2019-01-21T06:49:24.888Z,-4.73
2019-01-21T06:50:25.646Z,-4.75
2019-01-21T06:51:25.298Z,-4.66
2019-01-21T06:52:25.447Z,-4.64
2019-01-21T06:53:25.692Z,-4.71
2019-01-21T06:54:25.807Z,-4.73
2019-01-21T06:55:25.933Z,-4.70
2019-01-21T06:56:26.133Z,-4.64
2019-01-21T06:57:26.223Z,-4.70
2019-01-21T06:58:26.453Z,-4.66
2019-01-21T06:59:26.557Z,-4.70
2019-01-21T07:00:26.747Z,-4.75
2019-01-21T07:01:26.848Z,-4.55
2019-01-21T07:03:27.355Z,-4.53
2019-01-21T07:04:27.353Z,-4.52
2019-01-21T07:05:27.491Z,-4.57
2019-01-21T07:06:27.717Z,-4.50
2019-01-21T07:07:27.996Z,-4.55
2019-01-21T07:08:28.107Z,-4.45
2019-01-21T07:09:28.218Z,-4.52
2019-01-21T07:10:28.355Z,-4.53
2019-01-21T07:11:28.558Z,-4.59
2019-01-21T07:12:28.661Z,-4.55
2019-01-21T07:13:28.888Z,-4.50
2019-01-21T07:14:28.991Z,-4.55
2019-01-21T07:15:29.137Z,-4.49
2019-01-21T07:16:29.230Z,-4.50
2019-01-21T07:17:29.460Z,-4.43
2019-01-21T07:18:29.611Z,-4.49
2019-01-21T07:19:29.726Z,-4.64
2019-01-21T07:20:30.011Z,-4.52
2019-01-21T07:21:30.107Z,-4.48
2019-01-21T07:22:30.202Z,-4.49
2019-01-21T07:23:30.347Z,-4.50
2019-01-21T07:24:30.548Z,-4.45
2019-01-21T07:25:30.741Z,-4.55
2019-01-21T07:26:31.734Z,-4.43
2019-01-21T07:27:30.937Z,-4.53
2019-01-21T07:28:31.121Z,-4.53
2019-01-21T07:29:31.322Z,-4.42
2019-01-21T07:30:31.451Z,-4.43
2019-01-21T07:31:31.627Z,-4.45
2019-01-21T07:32:31.764Z,-4.41
2019-01-21T07:33:31.922Z,-4.39
2019-01-21T07:34:33.142Z,-4.45
2019-01-21T07:35:32.327Z,-4.38
2019-01-21T07:36:32.417Z,-4.42
2019-01-21T07:37:32.770Z,-4.34
2019-01-21T07:38:32.767Z,-4.41
2019-01-21T07:39:33.905Z,-4.34
2019-01-21T07:40:42.066Z,-4.28
2019-01-21T07:41:35.345Z,-4.12
2019-01-21T07:42:33.365Z,-4.20
2019-01-21T07:43:33.588Z,-4.10
2019-01-21T07:44:33.640Z,-4.09
2019-01-21T07:45:33.831Z,-4.07
2019-01-21T07:46:33.956Z,-4.13
2019-01-21T07:47:34.118Z,-4.13
2019-01-21T07:48:34.326Z,-4.07
2019-01-21T07:49:34.464Z,-4.06
2019-01-21T07:50:34.628Z,-3.99
2019-01-21T07:51:34.714Z,-4.02
2019-01-21T07:52:35.009Z,-3.93
2019-01-21T07:53:35.121Z,-4.07
2019-01-21T07:54:35.257Z,-4.07
2019-01-21T07:55:35.364Z,-3.93
2019-01-21T07:56:35.627Z,-3.96
2019-01-21T07:57:36.119Z,-3.92
2019-01-21T07:58:35.928Z,-3.95
2019-01-21T07:59:36.144Z,-3.92
2019-01-21T08:00:36.381Z,-3.82
2019-01-21T08:01:36.992Z,-3.85
2019-01-21T08:02:37.086Z,-3.92
2019-01-21T08:03:36.825Z,-3.96
2019-01-21T08:04:36.991Z,-3.93
2019-01-21T08:05:37.129Z,-3.93
2019-01-21T08:06:37.294Z,-4.02
2019-01-21T08:07:37.464Z,-3.99
2019-01-21T08:08:37.603Z,-3.99
2019-01-21T08:09:37.813Z,-3.95
2019-01-21T08:10:37.906Z,-3.88
2019-01-21T08:11:38.058Z,-3.83
2019-01-21T08:12:38.210Z,-3.91
2019-01-21T08:13:38.300Z,-3.70
2019-01-21T08:14:38.508Z,-3.70
2019-01-21T08:15:38.717Z,-3.64
2019-01-21T08:16:38.873Z,-3.64
2019-01-21T08:17:39.072Z,-3.63
2019-01-21T08:18:39.263Z,-3.51
2019-01-21T08:19:39.498Z,-3.49
2019-01-21T08:20:40.080Z,-3.51
2019-01-21T08:21:39.735Z,-3.66
2019-01-21T08:22:39.842Z,-3.61
2019-01-21T08:23:40.089Z,-3.46
2019-01-21T08:24:40.217Z,-3.49
2019-01-21T08:25:40.391Z,-3.44
2019-01-21T08:26:40.477Z,-3.52
2019-01-21T08:27:40.601Z,-3.55
2019-01-21T08:28:40.821Z,-3.37
2019-01-21T08:29:41.005Z,-3.41
2019-01-21T08:30:41.184Z,-3.38
2019-01-21T08:31:41.273Z,-3.44
2019-01-21T08:32:41.449Z,-3.40
2019-01-21T08:33:41.662Z,-3.41
2019-01-21T08:34:41.929Z,-3.38
2019-01-21T08:35:42.968Z,-3.52
2019-01-21T08:36:42.550Z,-3.58
2019-01-21T08:37:42.309Z,-3.52
2019-01-21T08:38:42.468Z,-3.38
2019-01-21T08:39:42.677Z,-3.46
2019-01-21T08:40:42.795Z,-3.44
2019-01-21T08:41:43.000Z,-3.35
2019-01-21T08:42:43.212Z,-3.23
2019-01-21T08:43:43.293Z,-3.22
2019-01-21T08:44:43.579Z,-3.20
2019-01-21T08:45:43.799Z,-3.13
2019-01-21T08:46:44.178Z,-3.09
2019-01-21T08:47:44.060Z,-3.09
2019-01-21T08:48:44.058Z,-3.13
2019-01-21T08:49:44.175Z,-2.99
2019-01-21T08:50:44.426Z,-2.97
2019-01-21T08:51:44.497Z,-3.01
2019-01-21T08:52:44.645Z,-2.91
2019-01-21T08:53:44.855Z,-2.99
2019-01-21T08:54:45.058Z,-2.91
2019-01-21T08:55:45.170Z,-2.88
2019-01-21T08:56:45.261Z,-2.84
2019-01-21T08:57:45.544Z,-2.92
2019-01-21T08:58:45.725Z,-2.76
2019-01-21T08:59:45.857Z,-2.74
2019-01-21T09:00:46.051Z,-2.70
2019-01-21T09:01:46.232Z,-2.74
2019-01-21T09:02:46.297Z,-2.63
2019-01-21T09:03:46.576Z,-2.65
2019-01-21T09:04:46.596Z,-2.66
2019-01-21T09:05:46.843Z,-2.58
2019-01-21T09:06:46.936Z,-2.47
2019-01-21T09:07:47.106Z,-2.53
2019-01-21T09:08:47.321Z,-2.45
2019-01-21T09:09:47.474Z,-2.40
2019-01-21T09:10:47.593Z,-2.26
2019-01-21T09:11:47.817Z,-2.26
2019-01-21T09:12:47.874Z,-2.23
2019-01-21T09:13:48.066Z,-2.21
2019-01-21T09:14:48.222Z,-2.23
2019-01-21T09:15:48.423Z,-2.13
2019-01-21T09:16:48.509Z,-2.13
2019-01-21T09:17:48.668Z,-2.15
2019-01-21T09:18:48.864Z,-2.12
2019-01-21T09:19:49.006Z,-2.04
2019-01-21T09:20:49.130Z,-2.07
2019-01-21T09:21:49.303Z,-2.07
2019-01-21T09:22:49.431Z,-1.97
2019-01-21T09:23:49.568Z,-1.84
2019-01-21T09:24:49.764Z,-1.90
2019-01-21T09:25:49.926Z,-1.82
2019-01-21T09:26:50.017Z,-1.79
2019-01-21T09:27:50.313Z,-1.79
2019-01-21T09:28:50.381Z,-1.83
2019-01-21T09:29:50.590Z,-1.65
2019-01-21T09:30:50.782Z,-1.65
2019-01-21T09:31:50.916Z,-1.59
2019-01-21T09:32:51.074Z,-1.50
2019-01-21T09:33:51.184Z,-1.48
2019-01-21T09:34:51.337Z,-1.46
2019-01-21T09:35:51.554Z,-1.32
2019-01-21T09:36:51.690Z,-1.47
2019-01-21T09:37:51.841Z,-1.33
2019-01-21T09:38:52.000Z,-1.20
2019-01-21T09:39:52.154Z,-1.12
2019-01-21T09:40:52.248Z,-0.61
2019-01-21T09:41:52.496Z,0.37
2019-01-21T09:42:52.593Z,1.08
2019-01-21T09:43:53.910Z,1.70
2019-01-21T09:44:52.957Z,2.15
2019-01-21T09:45:53.164Z,2.57
2019-01-21T09:46:53.230Z,2.65
2019-01-21T09:47:53.351Z,2.60
2019-01-21T09:48:53.590Z,2.87
2019-01-21T09:49:53.755Z,3.14
2019-01-21T09:50:53.912Z,3.31
2019-01-21T09:51:54.104Z,3.41
2019-01-21T09:52:54.170Z,3.74
2019-01-21T09:53:54.343Z,3.92
2019-01-21T09:54:54.550Z,4.10
2019-01-21T09:55:54.698Z,4.14
2019-01-21T09:56:54.810Z,4.26
2019-01-21T09:57:54.995Z,4.16
2019-01-21T09:58:55.175Z,4.17
2019-01-21T09:59:55.366Z,4.28
2019-01-21T10:00:55.528Z,4.30
2019-01-21T10:01:55.655Z,4.20
2019-01-21T10:02:55.923Z,4.42
2019-01-21T10:03:55.968Z,4.66
2019-01-21T10:04:56.160Z,4.80
2019-01-21T10:05:56.305Z,4.97
2019-01-21T10:06:56.524Z,5.29
2019-01-21T10:07:56.670Z,5.36
2019-01-21T10:08:56.802Z,5.62
2019-01-21T10:09:57.000Z,5.69
2019-01-21T10:11:03.156Z,5.73
2019-01-21T10:11:57.289Z,6.33
2019-01-21T10:12:57.467Z,6.64
2019-01-21T10:13:57.628Z,6.96
2019-01-21T10:14:57.794Z,7.10
2019-01-21T10:15:57.932Z,7.25
2019-01-21T10:16:58.208Z,7.25
2019-01-21T10:17:59.721Z,7.25
2019-01-21T10:18:58.496Z,7.23
2019-01-21T10:19:58.621Z,7.14
2019-01-21T10:20:58.846Z,7.33
2019-01-21T10:21:58.995Z,7.79
2019-01-21T10:22:59.654Z,8.08
2019-01-21T10:23:59.354Z,8.24
2019-01-21T10:24:59.492Z,8.09
2019-01-21T10:25:59.699Z,8.48
2019-01-21T10:26:59.846Z,8.49
2019-01-21T10:28:00.036Z,8.58
2019-01-21T10:29:00.165Z,8.42
2019-01-21T10:30:00.340Z,8.61
2019-01-21T10:31:00.506Z,8.99
2019-01-21T10:32:00.655Z,8.94
2019-01-21T10:33:00.884Z,8.74
2019-01-21T10:34:00.994Z,8.24
2019-01-21T10:35:01.210Z,8.63
2019-01-21T10:36:01.334Z,8.74
2019-01-21T10:37:01.478Z,9.06
2019-01-21T10:38:01.638Z,9.36
2019-01-21T10:39:01.846Z,9.39
2019-01-21T10:40:01.989Z,9.16
2019-01-21T10:41:02.161Z,9.18
2019-01-21T10:42:02.334Z,9.34
2019-01-21T10:43:02.499Z,9.72
2019-01-21T10:44:02.576Z,9.79
2019-01-21T10:45:02.879Z,9.84
2019-01-21T10:46:03.003Z,9.86
2019-01-21T10:47:03.129Z,9.62
2019-01-21T10:48:03.360Z,9.58
2019-01-21T10:51:25.787Z,9.23
2019-01-21T10:52:26.291Z,8.99
2019-01-21T10:53:26.642Z,9.32
2019-01-21T10:54:26.345Z,8.81
2019-01-21T10:55:27.235Z,8.87
2019-01-21T10:56:27.010Z,8.92
2019-01-21T10:57:26.779Z,8.97
2019-01-21T10:58:27.133Z,8.58
2019-01-21T10:59:27.611Z,8.97
2019-01-21T11:00:25.157Z,9.04
2019-01-21T11:01:25.204Z,9.03
2019-01-21T11:02:25.359Z,9.19
2019-01-21T11:03:25.534Z,9.59
2019-01-21T11:04:26.590Z,9.73
2019-01-21T11:05:25.960Z,9.58
2019-01-21T11:06:26.111Z,9.77
2019-01-21T11:07:26.289Z,9.74
2019-01-21T11:08:26.404Z,9.80
2019-01-21T11:09:26.929Z,9.99
2019-01-21T11:10:26.756Z,10.10
2019-01-21T11:11:26.964Z,10.12
2019-01-21T11:12:27.135Z,9.95
2019-01-21T11:13:27.230Z,10.09
2019-01-21T11:14:27.367Z,10.46
2019-01-21T11:15:27.655Z,10.78
2019-01-21T11:16:27.667Z,10.97
2019-01-21T11:17:27.915Z,11.04
2019-01-21T11:18:28.064Z,11.36
2019-01-21T11:19:28.252Z,11.19
2019-01-21T11:20:28.394Z,11.25
2019-01-21T11:21:28.662Z,11.15
2019-01-21T11:22:28.818Z,11.04
2019-01-21T11:23:28.963Z,10.94
2019-01-21T11:24:29.133Z,11.00
2019-01-21T11:25:29.311Z,10.93
2019-01-21T11:26:29.497Z,11.15
2019-01-21T11:27:29.647Z,10.94
2019-01-21T11:28:29.847Z,10.92
2019-01-21T11:29:29.942Z,10.94
2019-01-21T11:30:30.163Z,10.82
2019-01-21T11:31:30.245Z,10.63
2019-01-21T11:32:30.492Z,10.60
2019-01-21T11:33:30.681Z,10.82
2019-01-21T11:34:30.831Z,10.78
2019-01-21T11:35:30.929Z,11.44
2019-01-21T11:36:31.195Z,11.44
2019-01-21T11:37:31.396Z,11.48
2019-01-21T11:38:31.490Z,11.05
2019-01-21T11:39:31.727Z,10.86
2019-01-21T11:40:31.871Z,11.04
2019-01-21T11:41:32.056Z,11.45
2019-01-21T11:42:32.205Z,11.55
2019-01-21T11:43:32.383Z,10.92
2019-01-21T11:44:32.529Z,10.44
2019-01-21T11:45:32.668Z,10.09
2019-01-21T11:46:32.869Z,10.33
2019-01-21T11:47:33.010Z,10.53
2019-01-21T11:48:33.209Z,10.67
2019-01-21T11:49:33.362Z,10.94
2019-01-21T11:50:33.582Z,11.37
2019-01-21T11:51:33.651Z,11.55
2019-01-21T11:52:33.946Z,11.57
2019-01-21T11:53:34.094Z,11.51
2019-01-21T11:54:34.254Z,11.43
2019-01-21T11:55:34.369Z,11.10
2019-01-21T11:56:34.535Z,10.75
2019-01-21T11:57:34.720Z,10.82
2019-01-21T11:58:34.835Z,11.22
2019-01-21T11:59:35.024Z,11.25
2019-01-21T12:00:35.214Z,10.96
2019-01-21T12:01:35.363Z,10.81
2019-01-21T12:02:35.555Z,10.64
2019-01-21T12:03:35.823Z,10.94
2019-01-21T12:04:35.913Z,11.57
2019-01-21T12:05:36.082Z,11.80
2019-01-21T12:06:36.629Z,12.07
2019-01-21T12:07:36.387Z,11.77
2019-01-21T12:08:36.536Z,11.59
2019-01-21T12:09:36.725Z,10.81
2019-01-21T12:10:36.867Z,10.82
2019-01-21T12:11:37.037Z,10.41
2019-01-21T12:12:37.205Z,10.40
2019-01-21T12:13:37.399Z,10.75
2019-01-21T12:14:37.688Z,10.89
2019-01-21T12:15:37.680Z,11.40
2019-01-21T12:16:37.909Z,11.19
2019-01-21T12:17:39.301Z,11.12
2019-01-21T12:18:38.138Z,11.59
2019-01-21T12:19:38.839Z,11.75
2019-01-21T12:20:38.684Z,11.94
2019-01-21T12:21:38.658Z,11.86
2019-01-21T12:22:40.536Z,12.13
2019-01-21T12:23:39.129Z,12.39
2019-01-21T12:24:40.039Z,12.31
2019-01-21T12:25:39.393Z,12.24
2019-01-21T12:26:39.611Z,12.61
2019-01-21T12:27:39.738Z,12.39
2019-01-21T12:28:40.231Z,12.53
2019-01-21T12:29:40.580Z,12.45
2019-01-21T12:30:40.344Z,12.68
2019-01-21T12:31:40.709Z,12.70
2019-01-21T12:32:40.683Z,12.64
2019-01-21T12:33:42.029Z,12.72
2019-01-21T12:34:41.048Z,12.86
2019-01-21T12:35:41.263Z,12.32
2019-01-21T12:36:41.474Z,12.35
2019-01-21T12:37:41.618Z,12.70
2019-01-21T12:38:41.753Z,12.94
2019-01-21T12:39:41.907Z,12.83
2019-01-21T12:40:42.092Z,12.76
2019-01-21T12:41:42.242Z,12.90
2019-01-21T12:42:42.421Z,12.79
2019-01-21T12:43:42.592Z,12.94
2019-01-21T12:44:42.791Z,12.62
2019-01-21T12:45:42.938Z,12.42
2019-01-21T12:46:43.160Z,12.28
2019-01-21T12:47:43.317Z,12.27
2019-01-21T12:48:43.483Z,12.29
2019-01-21T12:49:43.661Z,12.00
2019-01-21T12:50:43.875Z,11.83
2019-01-21T12:51:43.977Z,11.73
2019-01-21T12:52:44.126Z,12.02
2019-01-21T12:53:44.325Z,11.70
2019-01-21T12:54:44.519Z,11.86
2019-01-21T12:55:44.714Z,11.57
2019-01-21T12:56:44.857Z,11.40
2019-01-21T12:57:44.942Z,11.48
2019-01-21T12:58:45.909Z,11.69
2019-01-21T12:59:45.401Z,12.12
2019-01-21T13:00:46.241Z,12.02
2019-01-21T13:01:45.790Z,12.10
2019-01-21T13:02:46.009Z,11.55
2019-01-21T13:03:46.546Z,11.97
2019-01-21T13:04:46.805Z,12.10
2019-01-21T13:05:46.681Z,11.97
2019-01-21T13:06:46.821Z,11.86
2019-01-21T13:07:46.990Z,12.25
2019-01-21T13:08:47.256Z,12.09
2019-01-21T13:09:47.366Z,11.83
2019-01-21T13:10:47.722Z,12.15
2019-01-21T13:11:47.937Z,11.77
2019-01-21T13:12:48.190Z,11.59
2019-01-21T13:13:48.184Z,11.08
2019-01-21T13:14:48.579Z,10.97
2019-01-21T13:15:48.549Z,11.07
2019-01-21T13:16:48.573Z,10.81
2019-01-21T13:17:48.985Z,10.86
2019-01-21T13:18:48.929Z,10.92
2019-01-21T13:19:49.343Z,10.81
2019-01-21T13:20:49.481Z,10.92
2019-01-21T13:21:49.455Z,10.86
2019-01-21T13:22:51.625Z,10.87
2019-01-21T13:23:49.781Z,10.96
2019-01-21T13:24:51.017Z,10.41
2019-01-21T13:25:50.124Z,10.56
2019-01-21T13:26:50.260Z,10.51
2019-01-21T13:27:50.531Z,10.82
2019-01-21T13:28:50.763Z,10.79
2019-01-21T13:29:50.772Z,10.72
2019-01-21T13:31:51.282Z,9.91
2019-01-21T13:32:51.464Z,9.65
2019-01-21T13:33:51.555Z,8.95
2019-01-21T13:34:52.058Z,8.51
2019-01-21T13:35:51.795Z,7.94
2019-01-21T13:36:52.343Z,8.01
2019-01-21T13:39:37.371Z,8.13
2019-01-21T13:40:41.341Z,8.12
2019-01-21T13:41:40.106Z,8.69
2019-01-21T13:42:39.840Z,9.13
2019-01-21T13:43:37.827Z,9.50
2019-01-21T13:44:37.882Z,9.73
2019-01-21T13:45:38.303Z,9.77
2019-01-21T13:46:38.696Z,9.56
2019-01-21T13:47:38.753Z,9.77
2019-01-21T13:48:41.326Z,9.89
2019-01-21T13:49:41.646Z,9.86
2019-01-21T13:50:41.304Z,10.25
2019-01-21T13:51:39.689Z,10.63
2019-01-21T13:52:45.300Z,10.99
2019-01-21T13:53:40.557Z,10.90
2019-01-21T13:54:39.857Z,10.44
2019-01-21T13:55:42.320Z,10.56
2019-01-21T13:56:40.755Z,10.53
2019-01-21T13:57:39.381Z,10.20
2019-01-21T13:58:38.371Z,10.20
2019-01-21T13:59:38.663Z,10.25
2019-01-21T14:00:38.731Z,10.20
2019-01-21T14:01:39.140Z,10.10
2019-01-21T14:02:38.974Z,10.12
2019-01-21T14:03:39.535Z,10.64
2019-01-21T14:04:40.507Z,10.64
2019-01-21T14:05:40.339Z,10.46
2019-01-21T14:06:40.271Z,10.26
2019-01-21T14:07:40.680Z,9.82
2019-01-21T14:08:40.282Z,9.54
2019-01-21T14:09:40.439Z,9.62
2019-01-21T14:10:40.913Z,9.83
2019-01-21T14:11:40.916Z,9.82
2019-01-21T14:12:40.958Z,10.20
2019-01-21T14:13:41.122Z,10.67
2019-01-21T14:14:41.034Z,10.42
2019-01-21T14:15:41.371Z,10.42
2019-01-21T14:16:41.395Z,10.41
2019-01-21T14:17:41.897Z,10.22
2019-01-21T14:18:41.908Z,10.09
2019-01-21T14:19:41.934Z,9.79
2019-01-21T14:20:43.692Z,9.51
2019-01-21T14:21:42.654Z,9.19
2019-01-21T14:22:42.506Z,8.76
2019-01-21T14:23:42.703Z,8.52
2019-01-21T14:24:42.929Z,8.49
2019-01-21T14:25:43.358Z,8.36
2019-01-21T14:26:44.290Z,8.48
2019-01-21T14:27:43.460Z,8.87
2019-01-21T14:28:43.842Z,9.37
2019-01-21T14:29:44.508Z,9.69
2019-01-21T14:30:44.155Z,9.51
2019-01-21T14:31:44.327Z,9.84
2019-01-21T14:32:44.292Z,10.01
2019-01-21T14:33:44.527Z,10.19
2019-01-21T14:34:44.689Z,10.04
2019-01-21T14:35:45.478Z,9.80
2019-01-21T14:36:45.034Z,9.62
2019-01-21T14:37:45.562Z,9.21
2019-01-21T14:38:45.768Z,9.03
2019-01-21T14:39:45.807Z,8.51
2019-01-21T14:40:45.948Z,7.97
2019-01-21T14:41:46.367Z,7.82
2019-01-21T14:42:46.308Z,7.61
2019-01-21T14:43:46.548Z,7.38
2019-01-21T14:44:46.615Z,7.23
2019-01-21T14:45:46.781Z,7.07
2019-01-21T14:46:46.963Z,7.07
2019-01-21T14:47:47.465Z,7.17
2019-01-21T14:48:47.670Z,7.10
2019-01-21T14:49:47.617Z,7.13
2019-01-21T14:50:50.567Z,7.38
2019-01-21T14:51:47.904Z,7.33
2019-01-21T14:52:48.297Z,7.10
2019-01-21T14:53:48.185Z,6.87
2019-01-21T14:54:48.474Z,6.48
2019-01-21T14:55:48.565Z,6.17
2019-01-21T14:56:48.740Z,6.31
2019-01-21T14:57:48.956Z,6.33
2019-01-21T14:58:49.188Z,6.24
2019-01-21T14:59:49.471Z,6.26
2019-01-21T15:00:49.626Z,6.30
2019-01-21T15:01:49.764Z,6.22
2019-01-21T15:02:49.942Z,6.44
2019-01-21T15:03:50.094Z,6.60
2019-01-21T15:04:50.357Z,7.00
2019-01-21T15:05:50.437Z,7.07
2019-01-21T15:06:50.744Z,7.25
2019-01-21T15:07:50.737Z,7.21
2019-01-21T15:08:50.997Z,6.97
2019-01-21T15:09:51.126Z,6.46
2019-01-21T15:10:51.775Z,5.98
2019-01-21T15:11:51.571Z,5.48
2019-01-21T15:12:51.710Z,5.12
2019-01-21T15:13:52.053Z,4.52
2019-01-21T15:14:52.415Z,4.16
2019-01-21T15:15:52.514Z,3.77
2019-01-21T15:16:52.462Z,3.56
2019-01-21T15:17:52.673Z,3.40
2019-01-21T15:18:52.817Z,3.08
2019-01-21T15:19:52.987Z,2.74
2019-01-21T15:20:57.645Z,2.62
2019-01-21T15:21:53.400Z,2.54
2019-01-21T15:22:53.356Z,2.54
2019-01-21T15:23:53.618Z,2.46
2019-01-21T15:24:53.934Z,2.39
2019-01-21T15:25:54.615Z,2.29
2019-01-21T15:26:54.393Z,2.14
2019-01-21T15:27:54.619Z,2.08
2019-01-21T15:28:54.692Z,2.08
2019-01-21T15:29:56.066Z,1.85
2019-01-21T15:30:55.230Z,1.92
2019-01-21T15:31:55.241Z,1.76
2019-01-21T15:32:55.399Z,1.80
2019-01-21T15:34:05.953Z,1.70
2019-01-21T15:34:57.950Z,1.76
2019-01-21T15:35:58.847Z,1.68
2019-01-21T15:36:58.350Z,1.76
2019-01-21T15:38:58.551Z,1.66
2019-01-21T15:39:59.435Z,1.62
2019-01-21T15:40:59.193Z,1.73
2019-01-21T15:41:59.196Z,1.66
2019-01-21T15:43:59.455Z,1.59
2019-01-21T15:44:59.808Z,1.76
2019-01-21T15:45:59.810Z,1.70
2019-01-21T15:47:00.293Z,1.70
2019-01-21T15:48:00.099Z,1.63
2019-01-21T15:48:58.436Z,1.67
2019-01-21T15:51:04.871Z,1.49
2019-01-21T15:51:58.699Z,1.53
2019-01-21T15:52:58.854Z,1.52
2019-01-21T15:53:59.010Z,1.48
2019-01-21T15:54:59.177Z,1.37
2019-01-21T15:55:59.255Z,1.35
2019-01-21T15:56:59.486Z,1.44
2019-01-21T15:57:59.613Z,1.32
2019-01-21T15:58:59.840Z,1.30
2019-01-21T15:59:59.928Z,1.20
2019-01-21T16:01:00.136Z,1.26
2019-01-21T16:02:00.278Z,1.23
2019-01-21T16:03:00.500Z,1.13
2019-01-21T16:04:00.654Z,1.08
2019-01-21T16:05:00.851Z,1.10
2019-01-21T16:06:00.968Z,1.12
2019-01-21T16:07:01.125Z,1.08
2019-01-21T16:08:01.287Z,0.96
2019-01-21T16:09:02.284Z,0.92
2019-01-21T16:10:01.598Z,0.94
2019-01-21T16:11:01.807Z,0.87
2019-01-21T16:12:01.973Z,0.83
2019-01-21T16:13:02.068Z,0.84
2019-01-21T16:14:02.323Z,0.73
2019-01-21T16:18:05.425Z,0.31
2019-01-21T16:19:11.165Z,0.18
2019-01-21T16:25:26.103Z,-0.06
2019-01-21T16:54:23.886Z,-0.54
2019-01-21T16:57:09.522Z,-0.64
2019-01-21T16:58:08.718Z,-0.75
2019-01-21T16:59:06.500Z,-0.74
2019-01-21T17:01:40.921Z,-0.78
2019-01-21T17:02:41.248Z,-0.89
2019-01-21T17:05:15.478Z,-1.01
2019-01-21T17:06:14.306Z,-0.96
2019-01-21T17:09:02.727Z,-1.07
2019-01-21T17:11:02.424Z,-1.12
2019-01-21T17:12:02.067Z,-1.12
2019-01-21T17:13:01.237Z,-1.08
2019-01-21T17:14:01.501Z,-1.08
2019-01-21T17:15:01.446Z,-1.02
2019-01-21T17:16:01.590Z,-1.08
2019-01-21T17:17:01.639Z,-1.04
2019-01-21T17:18:01.855Z,-1.15
2019-01-21T17:19:01.991Z,-1.20
2019-01-21T17:20:02.180Z,-1.26
2019-01-21T17:21:02.307Z,-1.27
2019-01-21T17:22:02.500Z,-1.33
2019-01-21T17:23:02.552Z,-1.47
2019-01-21T17:24:02.970Z,-1.50
2019-01-21T17:25:02.847Z,-1.58
2019-01-21T17:26:03.040Z,-1.74
2019-01-21T17:27:03.117Z,-1.64
2019-01-21T17:28:03.374Z,-1.79
2019-01-21T17:29:03.482Z,-1.68
2019-01-21T17:30:03.711Z,-1.71
2019-01-21T17:31:03.801Z,-1.82
2019-01-21T17:32:04.050Z,-1.72
2019-01-21T17:33:05.803Z,-1.65
2019-01-21T17:34:04.361Z,-1.71
2019-01-21T17:35:04.793Z,-1.71
2019-01-21T17:36:04.879Z,-1.68
2019-01-21T17:39:24.921Z,-1.92
2019-01-21T17:40:25.855Z,-1.84
2019-01-21T17:41:17.389Z,-1.92
2019-01-21T17:42:17.452Z,-2.02
2019-01-21T17:49:40.641Z,-2.00
2019-01-21T17:50:24.107Z,-2.00
2019-01-21T17:51:33.792Z,-2.00
2019-01-21T17:52:28.657Z,-2.00
2019-01-21T17:53:31.842Z,-1.98
2019-01-21T17:54:22.336Z,-1.98
2019-01-21T17:58:45.420Z,-1.92
2019-01-21T18:11:55.643Z,-2.42
2019-01-21T18:12:54.859Z,-2.44
2019-01-21T18:13:55.794Z,-2.42
2019-01-21T18:14:55.785Z,-2.53
2019-01-21T18:23:03.807Z,-2.65
2019-01-21T18:26:10.587Z,-2.91
2019-01-21T18:27:09.200Z,-2.77
2019-01-21T18:28:01.061Z,-2.88
2019-01-21T18:29:04.214Z,-2.95